createdAt,value
2023-02-28T00:01:30.336Z,4.00
2023-02-28T00:06:29.870Z,4.10
2023-02-28T00:11:30.092Z,3.70
2023-02-28T00:16:29.810Z,4.30
2023-02-28T00:21:30.111Z,4.50
2023-02-28T00:26:29.616Z,4.30
2023-02-28T00:31:29.911Z,4.70
2023-02-28T00:36:29.507Z,4.30
2023-02-28T00:41:29.748Z,4.50
2023-02-28T00:46:29.393Z,4.50
2023-02-28T00:51:29.663Z,4.50
2023-02-28T00:56:29.215Z,4.40
2023-02-28T01:01:29.512Z,5.20
2023-02-28T01:06:29.103Z,5.10
2023-02-28T01:11:29.374Z,5.50
2023-02-28T01:16:28.961Z,4.90
2023-02-28T01:21:29.157Z,5.20
2023-02-28T01:26:28.871Z,4.80
2023-02-28T01:31:29.150Z,4.70
2023-02-28T01:36:28.792Z,5.00
2023-02-28T01:41:29.151Z,4.60
2023-02-28T01:46:28.662Z,5.20
2023-02-28T01:51:28.835Z,4.70
2023-02-28T01:56:28.468Z,4.50
2023-02-28T02:01:28.866Z,5.00
2023-02-28T02:06:28.342Z,5.10
2023-02-28T02:11:28.625Z,5.40
2023-02-28T02:16:28.205Z,5.20
2023-02-28T02:21:28.475Z,5.30
2023-02-28T02:26:28.077Z,5.30
2023-02-28T02:31:28.352Z,4.60
2023-02-28T02:36:27.916Z,5.20
2023-02-28T02:41:28.229Z,5.40
2023-02-28T02:46:27.918Z,5.50
2023-02-28T02:51:28.049Z,5.60
2023-02-28T02:56:27.681Z,5.50
2023-02-28T03:01:28.185Z,6.20
2023-02-28T03:06:27.533Z,5.70
2023-02-28T03:11:27.840Z,5.90
2023-02-28T03:16:27.431Z,6.70
2023-02-28T03:21:27.653Z,6.50
2023-02-28T03:26:27.283Z,6.80
2023-02-28T03:31:27.669Z,6.80
2023-02-28T03:36:27.289Z,7.00
2023-02-28T03:41:27.491Z,7.70
2023-02-28T03:46:27.069Z,8.10
2023-02-28T03:51:27.183Z,8.20
2023-02-28T03:56:26.904Z,8.30
2023-02-28T04:01:27.292Z,9.00
2023-02-28T04:06:26.780Z,9.90
2023-02-28T04:11:27.074Z,8.80
2023-02-28T04:16:35.160Z,9.60
2023-02-28T04:21:28.099Z,10.10
2023-02-28T04:26:26.568Z,10.40
2023-02-28T04:31:26.764Z,10.50
2023-02-28T04:36:26.428Z,10.70
2023-02-28T04:41:26.335Z,11.20
2023-02-28T04:46:26.295Z,11.30
2023-02-28T04:51:26.219Z,11.40
2023-02-28T04:56:26.245Z,11.40
2023-02-28T05:01:26.067Z,11.60
2023-02-28T05:06:26.026Z,10.50
2023-02-28T05:11:26.001Z,10.70
2023-02-28T05:16:25.934Z,10.80
2023-02-28T05:21:25.837Z,10.60
2023-02-28T05:26:25.762Z,11.60
2023-02-28T05:31:25.822Z,11.90
2023-02-28T05:36:25.685Z,11.90
2023-02-28T05:41:25.626Z,11.30
2023-02-28T05:46:25.523Z,12.50
2023-02-28T05:51:25.494Z,11.80
2023-02-28T05:56:25.460Z,11.50
2023-02-28T06:01:25.349Z,12.20
2023-02-28T06:06:25.328Z,12.40
2023-02-28T06:11:25.248Z,11.80
2023-02-28T06:16:25.296Z,11.90
2023-02-28T06:21:25.120Z,12.30
2023-02-28T06:26:25.078Z,12.10
2023-02-28T06:31:25.025Z,12.00
2023-02-28T06:36:24.900Z,12.30
2023-02-28T06:41:24.832Z,11.90
2023-02-28T06:46:24.812Z,11.80
2023-02-28T06:51:24.680Z,12.20
2023-02-28T06:56:24.700Z,11.90
2023-02-28T07:01:24.634Z,11.70
2023-02-28T07:06:24.580Z,11.30
2023-02-28T07:11:24.445Z,11.10
2023-02-28T07:16:24.422Z,10.60
2023-02-28T07:21:24.329Z,10.10
2023-02-28T07:26:24.251Z,10.30
2023-02-28T07:31:24.266Z,9.30
2023-02-28T07:36:24.137Z,8.80
2023-02-28T07:41:24.147Z,8.20
2023-02-28T07:46:23.988Z,8.40
2023-02-28T07:51:23.941Z,8.70
2023-02-28T07:56:23.867Z,8.30
2023-02-28T08:01:23.848Z,8.70
2023-02-28T08:06:23.984Z,8.50
2023-02-28T08:11:23.657Z,8.40
2023-02-28T08:16:23.694Z,8.40
2023-02-28T08:21:23.558Z,8.70
2023-02-28T08:26:23.465Z,8.80
2023-02-28T08:31:23.430Z,8.80
2023-02-28T08:36:23.525Z,8.90
2023-02-28T08:41:23.344Z,9.00
2023-02-28T08:46:23.236Z,9.00
2023-02-28T08:51:23.131Z,8.50
2023-02-28T08:56:23.113Z,8.80
2023-02-28T09:01:23.128Z,8.00
2023-02-28T09:06:22.939Z,7.90
2023-02-28T09:11:22.863Z,8.00
2023-02-28T09:16:22.825Z,8.40
2023-02-28T09:21:22.738Z,7.40
2023-02-28T09:26:22.667Z,6.70
2023-02-28T09:31:22.661Z,7.50
2023-02-28T09:36:24.889Z,7.30
2023-02-28T09:41:22.495Z,7.30
2023-02-28T09:46:22.426Z,7.70
2023-02-28T09:51:22.339Z,7.00
2023-02-28T09:56:22.402Z,6.80
2023-02-28T10:01:22.244Z,5.90
2023-02-28T10:06:22.138Z,6.10
2023-02-28T10:11:22.062Z,6.80
2023-02-28T10:16:21.996Z,6.50
2023-02-28T10:21:21.959Z,6.80
2023-02-28T10:26:21.868Z,6.30
2023-02-28T10:31:24.765Z,6.40
2023-02-28T10:36:21.744Z,7.10
2023-02-28T10:41:21.689Z,7.00
2023-02-28T10:46:21.616Z,6.80
2023-02-28T10:51:21.552Z,7.20
2023-02-28T10:56:21.507Z,7.60
2023-02-28T11:01:21.427Z,7.50
2023-02-28T11:06:21.520Z,7.50
2023-02-28T11:11:21.307Z,7.70
2023-02-28T11:16:21.285Z,7.60
2023-02-28T11:21:21.279Z,7.70
2023-02-28T11:26:21.133Z,7.60
2023-02-28T11:31:21.071Z,8.30
2023-02-28T11:36:21.419Z,7.90
2023-02-28T11:41:20.928Z,8.10
2023-02-28T11:46:20.944Z,7.60
2023-02-28T11:51:20.785Z,7.60
2023-02-28T11:56:20.735Z,7.90
2023-02-28T12:01:20.817Z,8.10
2023-02-28T12:06:20.679Z,7.10
2023-02-28T12:11:20.581Z,7.10
2023-02-28T12:16:20.474Z,8.10
2023-02-28T12:21:20.371Z,8.30
2023-02-28T12:26:20.350Z,8.00
2023-02-28T12:31:20.267Z,8.30
2023-02-28T12:36:20.196Z,8.20
2023-02-28T12:41:20.158Z,8.80
2023-02-28T12:46:20.229Z,9.00
2023-02-28T12:51:20.031Z,8.50
2023-02-28T12:56:20.006Z,8.30
2023-02-28T13:01:19.905Z,9.30
2023-02-28T13:06:19.885Z,8.40
2023-02-28T13:11:33.721Z,8.90
2023-02-28T13:16:20.715Z,9.30
2023-02-28T13:21:19.580Z,8.60
2023-02-28T13:26:19.683Z,9.20
2023-02-28T13:31:19.477Z,8.50
2023-02-28T13:36:19.394Z,8.90
2023-02-28T13:41:19.391Z,9.20
2023-02-28T13:46:19.308Z,9.90
2023-02-28T13:51:19.239Z,9.50
2023-02-28T13:56:19.156Z,9.90
2023-02-28T14:01:19.198Z,10.30
2023-02-28T14:06:19.028Z,9.70
2023-02-28T14:11:18.949Z,9.90
2023-02-28T14:16:19.037Z,9.70
2023-02-28T14:21:18.853Z,10.00
2023-02-28T14:26:19.092Z,10.30
2023-02-28T14:31:18.798Z,10.20
2023-02-28T14:36:18.632Z,9.60
2023-02-28T14:41:18.576Z,10.30
2023-02-28T14:46:18.529Z,10.10
2023-02-28T14:51:18.447Z,10.50
2023-02-28T14:56:18.388Z,10.00
2023-02-28T15:01:18.435Z,10.40
2023-02-28T15:06:18.285Z,10.60
2023-02-28T15:11:18.163Z,9.70
2023-02-28T15:16:18.129Z,9.50
2023-02-28T15:21:19.157Z,9.90
2023-02-28T15:26:18.063Z,10.40
2023-02-28T15:31:17.933Z,9.80
2023-02-28T15:36:17.927Z,10.60
2023-02-28T15:41:17.791Z,10.20
2023-02-28T15:46:17.783Z,10.60
2023-02-28T15:51:17.664Z,10.50
2023-02-28T15:56:18.498Z,10.60
2023-02-28T16:01:17.573Z,10.30
2023-02-28T16:06:17.512Z,10.20
2023-02-28T16:11:17.398Z,10.40
2023-02-28T16:16:17.433Z,10.20
2023-02-28T16:21:17.289Z,10.10
2023-02-28T16:26:17.222Z,10.70
2023-02-28T16:31:17.168Z,10.70
2023-02-28T16:36:17.130Z,10.70
2023-02-28T16:41:17.018Z,11.00
2023-02-28T16:46:17.026Z,10.30
2023-02-28T16:51:16.937Z,10.90
2023-02-28T16:56:16.860Z,11.10
2023-02-28T17:01:16.817Z,10.80
2023-02-28T17:06:16.683Z,11.10
2023-02-28T17:11:16.616Z,11.00
2023-02-28T17:16:16.601Z,11.70
2023-02-28T17:21:16.488Z,12.90
2023-02-28T17:26:16.436Z,12.40
2023-02-28T17:31:16.605Z,12.00
2023-02-28T17:36:16.346Z,13.50
2023-02-28T17:41:16.333Z,12.80
2023-02-28T17:46:16.214Z,21.10
2023-02-28T17:51:16.202Z,14.80
2023-02-28T17:56:16.083Z,16.00
2023-02-28T18:01:15.995Z,14.90
2023-02-28T18:06:15.948Z,14.70
2023-02-28T18:11:15.863Z,16.00
2023-02-28T18:16:15.921Z,18.30
2023-02-28T18:21:15.799Z,17.50
2023-02-28T18:26:15.674Z,17.30
2023-02-28T18:31:15.672Z,17.70
2023-02-28T18:36:15.531Z,17.10
2023-02-28T18:41:15.530Z,17.90
2023-02-28T18:46:15.466Z,17.50
2023-02-28T18:51:15.367Z,17.40
2023-02-28T18:56:15.340Z,19.40
2023-02-28T19:01:15.446Z,17.60
2023-02-28T19:06:15.158Z,16.00
2023-02-28T19:11:15.162Z,16.20
2023-02-28T19:16:15.056Z,16.20
2023-02-28T19:21:14.946Z,17.00
2023-02-28T19:26:14.931Z,16.70
2023-02-28T19:31:14.941Z,18.20
2023-02-28T19:36:14.754Z,16.70
2023-02-28T19:41:14.820Z,16.30
2023-02-28T19:46:14.717Z,16.00
2023-02-28T19:51:14.739Z,16.40
2023-02-28T19:56:14.638Z,15.10
2023-02-28T20:01:14.699Z,15.30
2023-02-28T20:06:14.412Z,15.10
2023-02-28T20:11:14.400Z,15.10
2023-02-28T20:16:14.377Z,15.30
2023-02-28T20:21:14.355Z,16.40
2023-02-28T20:26:14.253Z,15.40
2023-02-28T20:31:14.245Z,15.40
2023-02-28T20:36:14.737Z,14.90
2023-02-28T20:41:14.151Z,15.40
2023-02-28T20:46:13.992Z,15.30
2023-02-28T20:51:13.923Z,15.90
2023-02-28T20:56:13.795Z,16.40
2023-02-28T21:01:13.848Z,21.00
2023-02-28T21:06:13.642Z,20.60
2023-02-28T21:11:13.660Z,19.90
2023-02-28T21:16:13.614Z,19.40
2023-02-28T21:21:13.469Z,21.00
2023-02-28T21:26:13.452Z,19.30
2023-02-28T21:31:13.540Z,20.70
2023-02-28T21:36:13.264Z,21.40
2023-02-28T21:41:13.325Z,19.10
2023-02-28T21:46:13.317Z,21.70
2023-02-28T21:51:13.093Z,20.90
2023-02-28T21:56:14.926Z,21.40
2023-02-28T22:01:12.954Z,23.00
2023-02-28T22:06:14.106Z,22.20
2023-02-28T22:11:12.868Z,22.70
2023-02-28T22:16:12.944Z,22.70
2023-02-28T22:21:12.825Z,20.30
2023-02-28T22:26:12.661Z,18.90
2023-02-28T22:31:12.626Z,19.70
2023-02-28T22:36:12.678Z,20.80
2023-02-28T22:41:12.472Z,21.50
2023-02-28T22:46:12.478Z,22.30
2023-02-28T22:51:12.730Z,23.30
2023-02-28T22:56:12.285Z,22.10
2023-02-28T23:01:12.328Z,23.40
2023-02-28T23:06:12.177Z,24.80
2023-02-28T23:11:12.176Z,25.20
2023-02-28T23:16:12.152Z,25.30
2023-02-28T23:21:12.023Z,25.30
2023-02-28T23:26:11.937Z,25.80
2023-02-28T23:31:11.885Z,25.30
2023-02-28T23:36:11.814Z,24.80
2023-02-28T23:41:11.688Z,25.70
2023-02-28T23:46:11.786Z,25.80
2023-02-28T23:51:11.582Z,26.70
2023-02-28T23:56:11.731Z,25.30
